Terminal Aerodrome Forecast
Issued by NWS

Home | Current Version | Previous Version | Text Only | Print | Product List | Glossary On
Versions: 1 2 3 4 5 6 7 8 9 10 11 12
000
FTUS45 KRIW 011100
TAFCPR
TAF
KCPR 011124Z 0112/0212 VRB05KT P6SM SCT250
     FM012000 07006KT P6SM SCT100
     FM020200 09006KT P6SM SCT100 BKN150
     FM020600 VRB05KT P6SM SCT110=

USA.gov is the U.S. government's official web portal to all federal, state and local government web resources and services.